Aeroporto :
LOGIN :

Iscrizione | Disclaimer

   EN    FR    IT 

 










Sommario :    VFR   VFR Marginale   IFR   IFR Intensivo   IFR Molto Intensivo
Visibilità : 
Base nubi : 
>= 8 km
>= 3000ft
5 / 8 km
1000 / 3000 ft
1500m / 5 km
500 / 1000 ft
800 / 1500m
200 / 500 ft
< 800m
< 200 ft
Simboli :   Temporali  Nebbia  Neve Forte  Precipitazioni Forti  Vento > 20 kt
SIGMETs :   Varie  Temporali  Ghiacco  Turbolenza  Onda orograficha  Ceneri Vulcaniche






- Altitudine del aeroporto : 370 ft


EBBE - Beauvechain AB

ULTIMO METAR :
  • 141906Z AUTO VRB02KT 9999 OVC000/// 04/03 Q1002 RED

METARs OBSOLETI :
  • 141825Z AUTO 08003KT 9999 BKN090/// OVC110/// 05/03 Q1002 BLU
  • 141755Z AUTO 08004KT 9999 SCT090/// OVC100/// 05/03 Q1002 BLU
  • 141725Z AUTO VRB02KT 9999 SCT031/// BKN095/// BKN110/// 05/03 Q1002 BLU
  • 141655Z AUTO VRB03KT 9999 SCT031/// BKN110/// OVC130/// 05/03 Q1002 BLU
  • 141625Z AUTO 10003KT 9999 FEW029/// BKN130/// 05/03 Q1001 BLU
  • 141555Z 14005KT 9999 BKN030 05/03 Q1001 BLU BLU TEMPO WHT

TAF TAF EBBE
Valido dal 14 a 19 ore il 15 a 07 ore UTC


141541Z 1419/1507 08004KT 9999 BKN020
TEMPO 1419/1500 6000 -RA BKN015
PROB30
TEMPO 1419/1500 3000 RA BKN007



MetMap, La meteo Aeronautica in un colpo d'occhio ! - Copyright ORBIFLY Dicembre 2007 - Disclaimer

ORBIFLY MET'MAP TEAM :

Programmazione e sviluppo : Alexandra Zaïnal
Concezione e sviluppo : Baudouin d'Aumeries
Co-Programmazione e sviluppo : Marc-Olivier Méhu
Supporto tecnico e logistico : Manuel Goepfert
Aiuto per la traduzione : Arnaldo La Scala

Contatto : metmap@orbifly.com




FONTI E CREDITI :

   NOAA